Time;durP1;ratioP1;P1;durP2;ratioP2;P2;SDS_P1;SDS_P2;PMS_P1;PMS_P2;Temp;Humidity;BMP_temperature;BMP_pressure;BME280_temperature;BME280_humidity;BME280_pressure;Samples;Min_cycle;Max_cycle;Signal;HPM_P1;HPM_P2
2022/06/26 00:00:35;;;;;;;13.67;12.27;;;;;;;18.31;100.00;101113.66;5304318;28;20028;-69
2022/06/26 00:03:06;;;;;;;12.93;11.73;;;;;;;18.31;100.00;101113.66;5307337;28;20528;-68
2022/06/26 00:05:38;;;;;;;12.88;11.05;;;;;;;18.31;100.00;101118.13;5306421;28;20443;-68
2022/06/26 00:08:09;;;;;;;12.43;11.23;;;;;;;18.33;100.00;101102.84;5307936;28;20028;-69
2022/06/26 00:10:41;;;;;;;12.60;11.33;;;;;;;18.27;100.00;101106.22;5309883;28;20026;-68
2022/06/26 00:13:13;;;;;;;13.13;11.40;;;;;;;18.29;100.00;101112.16;5315603;28;20027;-69
2022/06/26 00:15:45;;;;;;;12.47;11.27;;;;;;;18.26;100.00;101113.34;5304404;28;20085;-68
2022/06/26 00:18:17;;;;;;;12.93;11.60;;;;;;;18.29;100.00;101125.44;5311657;28;20293;-69
2022/06/26 00:20:48;;;;;;;12.35;11.18;;;;;;;18.24;100.00;101128.59;5308575;28;20038;-68
2022/06/26 00:23:20;;;;;;;12.00;10.90;;;;;;;18.21;100.00;101121.81;5311251;28;20063;-68
2022/06/26 00:25:51;;;;;;;12.68;11.52;;;;;;;18.18;100.00;101127.50;5307563;28;20032;-68
2022/06/26 00:28:22;;;;;;;13.57;12.27;;;;;;;18.18;100.00;101119.53;5308957;28;20031;-69
2022/06/26 00:30:54;;;;;;;12.63;11.40;;;;;;;18.17;100.00;101125.00;5308716;28;20031;-69
2022/06/26 00:33:25;;;;;;;11.77;10.77;;;;;;;18.15;100.00;101133.13;5311482;28;20896;-69
2022/06/26 00:35:56;;;;;;;12.32;11.13;;;;;;;18.12;100.00;101137.94;5304593;28;20027;-68
2022/06/26 00:38:27;;;;;;;12.45;11.35;;;;;;;18.10;100.00;101139.94;5311002;28;20034;-69
2022/06/26 00:40:59;;;;;;;12.77;11.67;;;;;;;18.02;100.00;101138.13;5312956;28;20031;-69
2022/06/26 00:43:30;;;;;;;13.33;11.90;;;;;;;18.05;100.00;101147.59;5308878;28;20032;-69
2022/06/26 00:46:04;;;;;;;13.33;11.57;;;;;;;18.05;100.00;101158.19;5308631;27;20043;-68
2022/06/26 00:48:35;;;;;;;14.23;12.82;;;;;;;17.96;100.00;101160.06;5309107;28;20480;-68
2022/06/26 00:51:07;;;;;;;13.05;11.85;;;;;;;17.94;100.00;101154.06;5305704;28;20020;-68
2022/06/26 00:53:38;;;;;;;12.68;11.52;;;;;;;17.92;100.00;101154.25;5291684;28;20047;-69
2022/06/26 00:56:09;;;;;;;14.40;12.45;;;;;;;17.89;100.00;101165.19;5305533;28;20438;-69
2022/06/26 00:58:41;;;;;;;13.63;12.38;;;;;;;17.91;100.00;101162.38;5307496;28;20924;-69
2022/06/26 01:01:12;;;;;;;14.23;12.70;;;;;;;17.92;100.00;101170.16;5311928;28;20031;-69
2022/06/26 01:03:43;;;;;;;14.07;12.73;;;;;;;17.89;100.00;101170.50;5306160;28;20543;-68
2022/06/26 01:06:14;;;;;;;14.23;13.00;;;;;;;17.90;100.00;101172.16;5306303;28;20115;-69
2022/06/26 01:08:46;;;;;;;15.50;14.07;;;;;;;17.87;100.00;101169.00;5307816;28;20020;-69
2022/06/26 01:11:18;;;;;;;15.10;13.70;;;;;;;17.85;100.00;101168.38;5309422;28;20028;-68
2022/06/26 01:13:52;;;;;;;14.97;13.60;;;;;;;17.84;100.00;101178.16;5308064;27;20042;-69
2022/06/26 01:16:24;;;;;;;14.98;13.68;;;;;;;17.74;100.00;101175.63;5307294;28;20036;-68
2022/06/26 01:18:56;;;;;;;15.75;14.25;;;;;;;17.70;100.00;101190.22;5304640;28;20054;-68
2022/06/26 01:21:28;;;;;;;15.83;14.40;;;;;;;17.74;100.00;101186.25;5306444;28;20020;-69
2022/06/26 01:24:00;;;;;;;16.70;15.23;;;;;;;17.72;100.00;101182.91;5304328;28;20035;-68
2022/06/26 01:26:31;;;;;;;16.33;14.83;;;;;;;17.73;100.00;101178.47;5301798;28;20030;-68
2022/06/26 01:29:04;;;;;;;16.63;15.27;;;;;;;17.68;100.00;101184.25;5309975;28;20489;-68
2022/06/26 01:31:36;;;;;;;17.40;15.90;;;;;;;17.71;100.00;101191.88;5312227;28;20106;-68
2022/06/26 01:34:09;;;;;;;18.00;16.40;;;;;;;17.61;100.00;101175.31;5309092;28;20038;-68
2022/06/26 01:36:41;;;;;;;18.08;16.48;;;;;;;17.64;100.00;101190.88;5308724;28;20552;-68
2022/06/26 01:39:12;;;;;;;17.88;16.27;;;;;;;17.68;100.00;101184.25;5305706;28;20114;-68
2022/06/26 01:41:43;;;;;;;17.87;16.27;;;;;;;17.67;100.00;101190.56;5307385;28;20085;-69
2022/06/26 01:44:15;;;;;;;18.48;16.75;;;;;;;17.65;100.00;101191.69;5308257;28;20071;-68
2022/06/26 01:46:46;;;;;;;19.87;18.07;;;;;;;17.63;100.00;101193.72;5300781;28;20148;-68
2022/06/26 01:49:17;;;;;;;19.27;17.55;;;;;;;17.61;100.00;101182.44;5308013;28;20102;-68
2022/06/26 01:51:49;;;;;;;19.25;17.35;;;;;;;17.59;100.00;101187.09;5302332;28;20472;-68
2022/06/26 01:54:20;;;;;;;20.33;18.43;;;;;;;17.59;100.00;101187.91;5288796;28;20589;-68
2022/06/26 01:56:52;;;;;;;19.80;17.80;;;;;;;17.55;100.00;101178.66;5284447;28;20035;-68
2022/06/26 01:59:23;;;;;;;20.13;18.17;;;;;;;17.55;100.00;101177.81;5308467;28;20126;-69
2022/06/26 02:01:54;;;;;;;21.42;19.38;;;;;;;17.53;100.00;101175.31;5306386;28;20024;-68
2022/06/26 02:04:26;;;;;;;20.17;18.20;;;;;;;17.53;100.00;101175.31;5306931;28;20062;-68
2022/06/26 02:06:57;;;;;;;20.13;18.33;;;;;;;17.50;100.00;101167.72;5310240;28;20532;-68
2022/06/26 02:15:10;;;;;;;19.75;17.85;;;;;;;17.47;100.00;101165.41;5309027;28;20036;-68
2022/06/26 02:17:41;;;;;;;19.05;17.20;;;;;;;17.54;100.00;101153.16;5305877;28;20028;-69
2022/06/26 02:20:13;;;;;;;19.92;18.02;;;;;;;17.50;100.00;101149.16;5309420;28;20019;-69
2022/06/26 02:22:44;;;;;;;19.23;17.30;;;;;;;17.51;100.00;101154.31;5307418;28;20480;-68
2022/06/26 02:25:16;;;;;;;20.23;18.33;;;;;;;17.50;100.00;101159.75;5308499;28;20024;-69
2022/06/26 02:27:48;;;;;;;19.48;17.67;;;;;;;17.51;100.00;101156.97;5309817;28;20027;-68
2022/06/26 02:30:19;;;;;;;19.55;17.65;;;;;;;17.42;100.00;101162.44;5309702;28;20499;-68
2022/06/26 02:32:51;;;;;;;18.35;16.50;;;;;;;17.33;100.00;101169.56;5287890;28;20027;-68
2022/06/26 02:35:26;;;;;;;17.58;15.73;;;;;;;17.23;100.00;101180.31;5303911;28;20028;-68
2022/06/26 02:37:57;;;;;;;18.35;15.95;;;;;;;17.08;100.00;101167.91;5306716;28;20081;-68
2022/06/26 02:40:30;;;;;;;15.98;14.32;;;;;;;17.03;100.00;101176.34;5305436;28;20481;-68
2022/06/26 02:43:01;;;;;;;16.70;14.93;;;;;;;16.94;100.00;101182.63;5302631;28;20399;-69
2022/06/26 02:45:33;;;;;;;14.80;13.20;;;;;;;16.92;100.00;101180.13;5306595;28;20032;-68
2022/06/26 02:48:05;;;;;;;15.23;12.95;;;;;;;16.88;100.00;101175.31;5305482;28;20037;-69
2022/06/26 02:50:36;;;;;;;14.35;12.07;;;;;;;16.83;100.00;101190.88;5301221;28;20036;-67
2022/06/26 02:53:08;;;;;;;13.48;12.07;;;;;;;16.77;100.00;101192.34;5297624;28;20518;-68
2022/06/26 02:55:39;;;;;;;14.45;12.95;;;;;;;16.73;100.00;101188.31;5306684;28;20073;-68
2022/06/26 02:58:11;;;;;;;16.90;13.00;;;;;;;16.69;100.00;101193.13;5304393;28;20031;-68
2022/06/26 03:00:42;;;;;;;16.02;14.25;;;;;;;16.68;100.00;101203.88;5311626;28;20047;-69
2022/06/26 03:03:13;;;;;;;14.80;13.23;;;;;;;16.64;100.00;101200.72;5302623;28;20484;-67
2022/06/26 03:05:45;;;;;;;16.35;13.02;;;;;;;16.66;100.00;101211.13;5304739;28;20039;-68
2022/06/26 03:08:16;;;;;;;14.57;12.63;;;;;;;16.63;100.00;101206.16;5305697;28;20024;-68
2022/06/26 03:10:49;;;;;;;14.77;13.13;;;;;;;16.67;100.00;101207.50;5300773;28;20031;-69
2022/06/26 03:13:20;;;;;;;14.07;12.25;;;;;;;16.59;100.00;101205.63;5307543;28;20016;-68
2022/06/26 03:15:51;;;;;;;15.18;11.90;;;;;;;16.59;100.00;101210.09;5307362;28;20835;-70
2022/06/26 03:18:23;;;;;;;15.68;12.82;;;;;;;16.57;100.00;101214.75;5302303;28;20026;-68
2022/06/26 03:20:54;;;;;;;14.20;12.65;;;;;;;16.49;100.00;101215.53;5306672;28;20085;-69
2022/06/26 03:24:01;;;;;;;16.38;12.88;;;;;;;16.47;100.00;101222.78;5304418;28;20020;-68
2022/06/26 03:26:17;;;;;;;12.50;11.18;;;;;;;16.39;100.00;101228.88;5303542;28;20126;-69
2022/06/26 03:28:48;;;;;;;13.30;11.88;;;;;;;16.37;100.00;101235.34;5306819;28;20034;-70
2022/06/26 03:31:19;;;;;;;13.27;11.85;;;;;;;16.34;100.00;101222.41;5310192;27;20499;-69
2022/06/26 03:33:51;;;;;;;15.38;12.05;;;;;;;16.37;100.00;101225.59;5306452;28;20034;-68
2022/06/26 03:36:24;;;;;;;16.40;11.73;;;;;;;16.39;100.00;101241.28;5303946;28;20028;-69
2022/06/26 03:38:56;;;;;;;;;;;;;;;16.87;100.00;101247.78;5301537;28;20031;-69
2022/06/26 03:41:27;;;;;;;11.38;9.90;;;;;;;16.32;100.00;101241.06;5304861;28;19912;-68
2022/06/26 03:43:59;;;;;;;13.90;10.43;;;;;;;16.29;100.00;101254.63;5304974;28;20086;-69
2022/06/26 03:46:31;;;;;;;13.55;10.60;;;;;;;16.23;100.00;101256.06;5309632;28;20180;-68
2022/06/26 03:49:02;;;;;;;18.98;11.18;;;;;;;16.16;100.00;101260.31;5301706;28;20039;-69
2022/06/26 03:51:34;;;;;;;11.73;9.88;;;;;;;16.11;100.00;101253.88;5310231;28;20043;-70
2022/06/26 03:54:05;;;;;;;13.05;9.82;;;;;;;16.09;100.00;101258.47;5307615;28;20047;-68
2022/06/26 03:56:37;;;;;;;14.55;10.32;;;;;;;16.07;100.00;101261.28;5308119;28;20070;-70
2022/06/26 03:59:08;;;;;;;12.02;9.50;;;;;;;16.05;100.00;101263.22;5304566;28;20031;-68
2022/06/26 04:01:39;;;;;;;11.73;9.25;;;;;;;16.02;100.00;101247.69;5303823;28;20031;-69
2022/06/26 04:04:11;;;;;;;11.30;9.70;;;;;;;16.05;100.00;101245.56;5306532;28;20396;-68
2022/06/26 04:06:42;;;;;;;12.15;8.88;;;;;;;16.01;100.00;101238.91;5304448;28;20030;-68
2022/06/26 04:09:13;;;;;;;12.40;9.13;;;;;;;16.02;100.00;101247.69;5304884;28;20065;-68
2022/06/26 04:11:45;;;;;;;9.20;8.35;;;;;;;16.03;100.00;101252.81;5290154;28;20027;-68
2022/06/26 04:14:16;;;;;;;10.50;9.00;;;;;;;15.95;100.00;101246.66;5302690;28;20035;-67
2022/06/26 04:16:47;;;;;;;10.73;8.43;;;;;;;16.00;100.00;101249.66;5306985;28;20101;-68
2022/06/26 04:19:19;;;;;;;11.57;8.50;;;;;;;16.04;100.00;101248.38;5312378;28;20059;-68
2022/06/26 04:21:50;;;;;;;10.13;9.02;;;;;;;16.03;100.00;101258.13;5311686;28;20599;-68
2022/06/26 04:24:21;;;;;;;9.23;8.05;;;;;;;16.08;100.00;101259.44;5303935;28;20054;-68
2022/06/26 04:26:53;;;;;;;11.55;9.02;;;;;;;16.07;100.00;101258.63;5314342;28;20035;-67
2022/06/26 04:29:24;;;;;;;11.70;8.90;;;;;;;16.07;100.00;101271.03;5311679;28;20550;-68
2022/06/26 04:31:55;;;;;;;10.82;8.68;;;;;;;16.10;100.00;101281.25;5309103;28;20110;-68
2022/06/26 04:34:26;;;;;;;11.48;8.85;;;;;;;16.07;100.00;101281.59;5309388;28;20386;-67
2022/06/26 04:36:58;;;;;;;11.93;8.77;;;;;;;16.08;100.00;101286.72;5309385;28;20035;-69
2022/06/26 04:39:29;;;;;;;14.40;8.82;;;;;;;16.11;100.00;101302.25;5295462;28;20032;-69
2022/06/26 04:42:01;;;;;;;10.27;8.02;;;;;;;16.10;100.00;101302.41;5305432;28;20573;-67
2022/06/26 04:44:32;;;;;;;12.88;8.57;;;;;;;16.12;100.00;101303.09;5305656;28;20739;-68
2022/06/26 04:47:03;;;;;;;10.05;8.60;;;;;;;16.13;100.00;101304.75;5308595;28;20031;-68
2022/06/26 04:49:35;;;;;;;14.05;9.25;;;;;;;16.18;100.00;101315.69;5307201;28;20081;-68
2022/06/26 04:52:06;;;;;;;12.07;9.05;;;;;;;16.21;100.00;101315.38;5309099;28;20024;-68
2022/06/26 04:54:37;;;;;;;12.35;8.60;;;;;;;16.29;100.00;101320.72;5324991;22;20142;-68
2022/06/26 04:57:09;;;;;;;13.15;9.40;;;;;;;16.28;100.00;101322.53;5291875;28;20032;-68
2022/06/26 04:59:40;;;;;;;15.57;9.27;;;;;;;16.33;100.00;101310.63;5299130;28;20472;-68
2022/06/26 05:02:12;;;;;;;12.18;9.45;;;;;;;16.37;100.00;101309.38;5298376;28;20020;-68
2022/06/26 05:04:43;;;;;;;13.73;9.80;;;;;;;16.36;100.00;101318.28;5295204;28;20024;-68
2022/06/26 05:07:14;;;;;;;12.30;9.10;;;;;;;16.36;100.00;101312.97;5298526;28;20243;-68
2022/06/26 05:09:46;;;;;;;14.05;9.40;;;;;;;16.40;100.00;101316.97;5293300;28;20024;-68
2022/06/26 05:12:17;;;;;;;13.25;9.07;;;;;;;16.39;100.00;101312.69;5297942;28;20483;-68
2022/06/26 05:14:48;;;;;;;13.25;9.30;;;;;;;16.41;100.00;101319.47;5297846;28;20059;-68
2022/06/26 05:17:19;;;;;;;14.20;8.82;;;;;;;16.44;100.00;101320.97;5298962;28;20170;-68
2022/06/26 05:19:51;;;;;;;13.43;9.32;;;;;;;16.39;100.00;101317.97;5299341;28;20031;-68
2022/06/26 05:22:22;;;;;;;14.13;8.65;;;;;;;16.39;100.00;101323.25;5295254;28;20069;-68
2022/06/26 05:24:53;;;;;;;13.02;9.43;;;;;;;16.45;100.00;101320.81;5295129;28;20032;-68
2022/06/26 05:27:24;;;;;;;13.38;9.40;;;;;;;16.46;100.00;101325.13;5297498;28;20036;-68
2022/06/26 05:29:56;;;;;;;15.38;9.80;;;;;;;16.45;100.00;101320.00;5294210;28;20035;-68
2022/06/26 05:32:27;;;;;;;15.15;9.25;;;;;;;16.47;100.00;101323.28;5298164;28;20022;-68
2022/06/26 05:34:58;;;;;;;13.02;8.93;;;;;;;16.53;100.00;101312.09;5293011;28;20032;-68
2022/06/26 05:37:30;;;;;;;14.38;9.65;;;;;;;16.50;100.00;101315.06;5298613;28;20032;-68
2022/06/26 05:40:01;;;;;;;14.30;9.48;;;;;;;16.56;100.00;101327.66;5294568;28;20047;-68
2022/06/26 05:42:32;;;;;;;13.32;9.15;;;;;;;16.53;100.00;101333.25;5295559;28;20058;-68
2022/06/26 05:45:04;;;;;;;13.48;9.20;;;;;;;16.56;100.00;101343.53;5295794;28;20036;-68
2022/06/26 05:47:35;;;;;;;14.45;9.43;;;;;;;16.61;100.00;101346.53;5296976;28;20122;-69
2022/06/26 05:50:07;;;;;;;12.82;9.00;;;;;;;16.63;100.00;101347.22;5295649;28;20086;-70
2022/06/26 05:52:38;;;;;;;14.07;9.68;;;;;;;16.68;100.00;101350.19;5295853;28;20078;-70
2022/06/26 05:55:10;;;;;;;15.02;9.85;;;;;;;16.70;100.00;101356.16;5296359;28;20443;-70
2022/06/26 05:57:41;;;;;;;14.13;9.52;;;;;;;16.82;100.00;101361.19;5296960;28;20024;-70
2022/06/26 06:00:13;;;;;;;13.18;8.45;;;;;;;16.89;100.00;101359.59;5298020;28;20028;-70
2022/06/26 06:02:45;;;;;;;12.93;8.30;;;;;;;16.94;100.00;101365.25;5296567;28;20030;-70
2022/06/26 06:05:17;;;;;;;12.45;8.75;;;;;;;16.98;100.00;101369.22;5292019;28;20038;-70
2022/06/26 06:07:49;;;;;;;12.82;8.48;;;;;;;17.07;100.00;101378.03;5298117;28;20020;-70
2022/06/26 06:10:21;;;;;;;16.02;8.50;;;;;;;17.25;100.00;101374.28;5295176;28;20042;-69
2022/06/26 06:12:53;;;;;;;13.52;8.48;;;;;;;17.24;100.00;101371.81;5296445;28;20028;-68
2022/06/26 06:15:25;;;;;;;12.30;7.77;;;;;;;17.34;100.00;101361.88;5296734;28;20055;-69
2022/06/26 06:17:56;;;;;;;10.80;7.40;;;;;;;17.50;100.00;101367.25;5294641;28;20899;-69
2022/06/26 06:20:27;;;;;;;11.05;7.97;;;;;;;17.49;100.00;101368.22;5296008;28;20404;-68
2022/06/26 06:23:04;;;;;;;13.15;8.57;;;;;;;17.59;100.00;101360.13;5295093;28;20372;-69
2022/06/26 06:25:36;;;;;;;12.32;7.20;;;;;;;17.54;100.00;101362.47;5293300;28;20074;-70
2022/06/26 06:28:07;;;;;;;10.32;6.90;;;;;;;17.62;100.00;101359.00;5296325;28;20650;-70
2022/06/26 06:30:38;;;;;;;10.35;7.07;;;;;;;17.67;100.00;101372.56;5297114;28;20492;-70
2022/06/26 06:33:10;;;;;;;9.90;6.83;;;;;;;17.80;100.00;101372.09;5294473;28;20035;-70
2022/06/26 06:35:41;;;;;;;9.02;6.43;;;;;;;17.73;100.00;101383.34;5293964;28;20115;-71
2022/06/26 06:38:13;;;;;;;10.23;6.83;;;;;;;17.74;100.00;101392.13;5296638;28;20020;-71
2022/06/26 06:40:44;;;;;;;9.00;6.60;;;;;;;17.83;100.00;101385.03;5297202;28;20039;-71
2022/06/26 06:43:15;;;;;;;9.03;6.43;;;;;;;17.86;100.00;101392.66;5277493;28;20028;-71
2022/06/26 06:45:46;;;;;;;9.25;6.10;;;;;;;17.87;100.00;101400.44;5287935;28;20109;-71
2022/06/26 06:48:20;;;;;;;9.03;6.13;;;;;;;17.94;100.00;101408.56;5286136;28;20496;-71
2022/06/26 06:50:52;;;;;;;9.88;6.28;;;;;;;17.93;100.00;101415.69;5290735;28;20506;-71
2022/06/26 06:53:24;;;;;;;9.60;6.72;;;;;;;17.93;100.00;101420.19;5277975;28;20040;-71
2022/06/26 06:55:55;;;;;;;10.93;6.47;;;;;;;18.05;100.00;101434.75;5294024;28;20036;-71
2022/06/26 06:58:26;;;;;;;9.07;5.93;;;;;;;18.07;100.00;101443.38;5267691;28;20561;-71
2022/06/26 07:00:58;;;;;;;9.10;5.72;;;;;;;18.19;100.00;101447.38;5294489;28;20039;-71
2022/06/26 07:03:29;;;;;;;8.48;6.00;;;;;;;18.21;100.00;101455.97;5294685;28;20024;-71
2022/06/26 07:06:00;;;;;;;9.38;5.68;;;;;;;18.29;100.00;101455.16;5292702;28;20035;-71
2022/06/26 07:08:31;;;;;;;7.97;6.15;;;;;;;18.33;100.00;101455.66;5296370;28;20378;-71
2022/06/26 07:11:03;;;;;;;9.13;6.50;;;;;;;18.56;100.00;101459.31;5293198;28;20419;-71
2022/06/26 07:13:34;;;;;;;8.27;6.00;;;;;;;18.39;100.00;101461.13;5293244;28;20043;-71
2022/06/26 07:16:05;;;;;;;10.20;6.50;;;;;;;18.52;100.00;101457.13;5288239;28;20106;-71
2022/06/26 07:18:37;;;;;;;8.10;6.27;;;;;;;18.57;100.00;101455.66;5275531;28;20055;-71
2022/06/26 07:21:08;;;;;;;9.53;6.00;;;;;;;18.63;100.00;101462.09;5293836;28;20080;-71
2022/06/26 07:23:40;;;;;;;8.47;5.20;;;;;;;18.66;100.00;101459.94;5295214;28;20397;-71
2022/06/26 07:26:11;;;;;;;8.93;5.70;;;;;;;18.80;100.00;101455.00;5293408;28;20051;-71
2022/06/26 07:28:42;;;;;;;8.53;5.37;;;;;;;18.81;100.00;101462.75;5294127;28;20057;-71
2022/06/26 07:31:14;;;;;;;8.47;5.87;;;;;;;18.93;100.00;101465.88;5295227;28;20480;-71
2022/06/26 07:36:35;;;;;;;7.55;5.55;;;;;;;18.78;100.00;101476.38;5294734;28;20473;-70
2022/06/26 07:39:07;;;;;;;7.28;5.88;;;;;;;18.72;100.00;101471.75;5289809;28;20028;-71
2022/06/26 07:41:39;;;;;;;8.13;5.05;;;;;;;18.82;100.00;101482.19;5293490;28;20119;-71
2022/06/26 07:44:11;;;;;;;6.97;4.47;;;;;;;18.75;100.00;101473.22;5294597;28;20081;-71
2022/06/26 07:46:43;;;;;;;8.27;5.23;;;;;;;18.74;100.00;101476.88;5290075;28;20052;-71
2022/06/26 07:49:15;;;;;;;7.35;4.88;;;;;;;18.72;100.00;101461.13;5295793;28;20035;-71
2022/06/26 07:51:46;;;;;;;6.47;4.53;;;;;;;18.80;100.00;101476.22;5279711;28;20024;-71
2022/06/26 07:54:18;;;;;;;6.50;4.37;;;;;;;18.81;100.00;101470.72;5280428;28;20036;-71
2022/06/26 07:56:50;;;;;;;7.40;5.10;;;;;;;18.77;100.00;101465.94;5296006;28;20050;-71
2022/06/26 07:59:21;;;;;;;9.40;5.10;;;;;;;18.90;100.00;101480.34;5295035;28;20020;-71
2022/06/26 08:01:53;;;;;;;6.23;4.80;;;;;;;18.83;100.00;101475.88;5277500;28;20025;-71
2022/06/26 08:04:24;;;;;;;5.87;4.47;;;;;;;18.82;100.00;101487.47;5295653;28;20032;-72
2022/06/26 08:06:55;;;;;;;6.20;4.63;;;;;;;18.85;100.00;101500.44;5292982;28;20470;-71
2022/06/26 08:09:27;;;;;;;7.43;4.83;;;;;;;18.86;100.00;101494.13;5294839;28;20028;-71
2022/06/26 08:11:58;;;;;;;7.70;4.73;;;;;;;18.89;100.00;101499.09;5295835;28;20346;-71
2022/06/26 08:14:30;;;;;;;8.57;5.17;;;;;;;19.00;100.00;101498.75;5295381;28;20032;-72
2022/06/26 08:17:01;;;;;;;6.73;4.70;;;;;;;18.94;100.00;101499.41;5277896;28;20055;-71
2022/06/26 08:19:32;;;;;;;6.60;4.70;;;;;;;19.10;100.00;101495.91;5291614;28;20509;-71
2022/06/26 08:22:04;;;;;;;6.43;4.80;;;;;;;19.08;100.00;101501.38;5294449;28;20016;-71
2022/06/26 08:24:36;;;;;;;6.50;4.10;;;;;;;19.05;100.00;101503.53;5296216;28;20028;-71
2022/06/26 08:27:08;;;;;;;10.60;4.63;;;;;;;18.87;100.00;101501.94;5294493;28;20038;-71
2022/06/26 08:29:40;;;;;;;5.75;4.07;;;;;;;18.92;100.00;101498.75;5295471;28;20423;-71
2022/06/26 08:32:11;;;;;;;5.73;4.30;;;;;;;18.87;100.00;101490.47;5296977;28;20028;-71
2022/06/26 08:34:42;;;;;;;6.80;4.20;;;;;;;18.98;100.00;101486.63;5278737;28;20540;-71
2022/06/26 08:37:15;;;;;;;12.37;4.00;;;;;;;18.97;100.00;101485.78;5271423;28;20148;-71
2022/06/26 08:39:46;;;;;;;5.30;4.05;;;;;;;19.00;100.00;101487.28;5293513;28;20039;-71
2022/06/26 08:42:18;;;;;;;5.50;4.43;;;;;;;18.98;100.00;101489.28;5295723;28;20028;-71
2022/06/26 08:44:51;;;;;;;8.33;4.23;;;;;;;19.05;100.00;101506.19;5274941;28;20423;-71
2022/06/26 08:47:24;;;;;;;5.82;3.97;;;;;;;19.25;100.00;101510.13;5289468;28;20047;-71
2022/06/26 08:49:57;;;;;;;5.65;3.92;;;;;;;19.11;100.00;101506.34;5285213;28;20493;-71
2022/06/26 08:52:30;;;;;;;7.70;3.80;;;;;;;19.06;100.00;101508.69;5276209;28;20048;-71
2022/06/26 08:55:03;;;;;;;5.88;3.30;;;;;;;19.13;100.00;101511.47;5258661;28;20054;-71
2022/06/26 08:57:36;;;;;;;5.35;3.95;;;;;;;19.13;100.00;101509.69;5274211;28;20041;-71
2022/06/26 09:00:08;;;;;;;;;;;;;;;19.80;100.00;101506.59;5267199;28;20044;-71
2022/06/26 09:02:41;;;;;;;5.88;3.17;;;;;;;19.25;100.00;101506.66;5276882;28;19923;-71
2022/06/26 09:05:12;;;;;;;6.38;3.47;;;;;;;19.24;100.00;101512.94;5265316;28;20043;-71
2022/06/26 09:07:47;;;;;;;7.07;3.83;;;;;;;19.15;100.00;101520.13;5291892;28;20024;-71
2022/06/26 09:10:20;;;;;;;6.38;3.60;;;;;;;19.09;100.00;101505.72;5288383;28;20043;-71
2022/06/26 09:12:56;;;;;;;7.07;3.50;;;;;;;19.07;100.00;101509.53;5287397;28;20472;-70
2022/06/26 09:15:28;;;;;;;5.70;3.00;;;;;;;19.22;100.00;101512.31;5294342;28;20062;-70
2022/06/26 09:18:05;;;;;;;8.43;3.47;;;;;;;19.30;100.00;101501.66;5263218;28;20020;-70
2022/06/26 09:20:50;;;;;;;6.97;2.90;;;;;;;19.41;100.00;101502.09;5293039;28;20074;-69
2022/06/26 09:23:21;;;;;;;4.30;2.95;;;;;;;19.31;100.00;101512.09;5265361;28;20036;-70
2022/06/26 09:25:53;;;;;;;4.67;3.03;;;;;;;19.53;100.00;101515.84;5286862;28;20389;-70
2022/06/26 09:28:24;;;;;;;5.10;3.10;;;;;;;19.43;100.00;101515.22;5291644;28;20070;-70
2022/06/26 09:30:58;;;;;;;6.17;3.07;;;;;;;19.51;100.00;101517.84;5291974;28;20123;-69
2022/06/26 09:33:32;;;;;;;5.63;2.75;;;;;;;19.61;100.00;101525.59;5288237;28;20476;-69
2022/06/26 09:36:05;;;;;;;3.88;2.38;;;;;;;19.59;100.00;101515.16;5286094;28;20152;-69
2022/06/26 09:38:36;;;;;;;5.35;3.00;;;;;;;19.62;100.00;101506.88;5293347;28;20032;-69
2022/06/26 09:41:08;;;;;;;5.77;3.13;;;;;;;19.64;100.00;101501.38;5292808;28;20496;-70
2022/06/26 09:43:44;;;;;;;4.23;3.07;;;;;;;19.83;100.00;101519.56;5289493;28;20032;-69
2022/06/26 09:46:16;;;;;;;5.70;2.85;;;;;;;19.59;100.00;101519.66;5277334;28;20032;-69
2022/06/26 09:48:47;;;;;;;5.88;3.28;;;;;;;19.54;100.00;101511.34;5291323;28;20031;-69
2022/06/26 09:51:19;;;;;;;6.10;3.30;;;;;;;19.56;100.00;101520.81;5270839;28;20027;-69
2022/06/26 09:53:51;;;;;;;5.70;3.00;;;;;;;19.69;100.00;101525.59;5292429;28;20040;-69
2022/06/26 09:56:23;;;;;;;5.95;2.95;;;;;;;19.65;100.00;101527.78;5275004;28;20043;-69
2022/06/26 09:58:56;;;;;;;4.63;3.10;;;;;;;19.78;100.00;101532.56;5293474;28;20035;-69
2022/06/26 10:07:12;;;;;;;5.00;2.78;;;;;;;19.90;100.00;101535.66;5296429;28;20047;-69
2022/06/26 10:09:44;;;;;;;6.23;2.83;;;;;;;19.89;100.00;101532.16;5294842;28;20465;-69
2022/06/26 10:12:17;;;;;;;4.22;2.75;;;;;;;19.93;100.00;101537.97;5296059;28;20040;-69
2022/06/26 10:14:51;;;;;;;5.40;3.10;;;;;;;19.93;100.00;101538.78;5290835;28;20107;-69
2022/06/26 10:17:25;;;;;;;4.78;2.53;;;;;;;20.04;100.00;101548.22;5294295;28;20523;-69
2022/06/26 10:19:59;;;;;;;5.97;2.58;;;;;;;20.00;100.00;101557.53;5288900;28;20119;-69
2022/06/26 10:22:41;;;;;;;5.97;2.60;;;;;;;20.35;100.00;101560.66;5296776;28;20020;-69
2022/06/26 10:25:24;;;;;;;7.28;3.08;;;;;;;20.48;100.00;101547.56;5265953;28;20051;-69
2022/06/26 10:27:57;;;;;;;6.10;2.80;;;;;;;20.42;100.00;101542.97;5296124;28;20124;-69
2022/06/26 10:30:30;;;;;;;4.72;2.35;;;;;;;20.48;100.00;101547.56;5292923;28;20420;-69
2022/06/26 10:33:19;;;;;;;4.30;2.47;;;;;;;20.69;100.00;101548.78;5296862;28;20032;-69
2022/06/26 10:35:51;;;;;;;6.65;2.60;;;;;;;20.63;100.00;101551.13;5294955;28;20046;-70
2022/06/26 10:38:25;;;;;;;4.50;2.53;;;;;;;20.88;100.00;101551.75;5296092;28;20502;-70
2022/06/26 10:44:16;;;;;;;4.85;2.50;;;;;;;21.02;100.00;101539.47;5267537;28;20055;-70
2022/06/26 10:46:50;;;;;;;8.23;3.70;;;;;;;21.27;100.00;101547.22;5294214;28;20024;-70
2022/06/26 10:49:21;;;;;;;5.57;3.50;;;;;;;21.33;100.00;101538.53;5295076;28;20019;-69
2022/06/26 10:51:52;;;;;;;7.23;3.13;;;;;;;21.32;100.00;101539.47;5292617;28;20024;-70
2022/06/26 10:54:29;;;;;;;5.53;3.07;;;;;;;21.32;100.00;101547.47;5314265;22;20056;-69
2022/06/26 10:57:17;;;;;;;5.00;2.63;;;;;;;21.58;100.00;101545.19;5293989;28;20104;-68
2022/06/26 10:59:49;;;;;;;6.60;2.83;;;;;;;21.42;100.00;101549.91;5305465;28;20019;-69
2022/06/26 11:02:20;;;;;;;5.27;2.77;;;;;;;21.41;100.00;101554.41;5307396;28;20503;-69
2022/06/26 11:04:51;;;;;;;7.83;2.63;;;;;;;21.47;100.00;101552.84;5301393;28;20028;-69
2022/06/26 11:07:23;;;;;;;5.23;2.60;;;;;;;21.69;100.00;101546.56;5302694;28;20067;-69
2022/06/26 11:09:57;;;;;;;6.67;2.10;;;;;;;21.79;100.00;101554.28;5298843;28;20056;-69
2022/06/26 11:12:39;;;;;;;5.00;2.03;;;;;;;21.90;100.00;101545.81;5299867;28;20110;-69
2022/06/26 11:15:26;;;;;;;5.10;2.45;;;;;;;21.93;100.00;101536.59;5303291;28;20469;-69
2022/06/26 11:17:59;;;;;;;6.40;2.40;;;;;;;21.69;100.00;101535.91;5303826;28;20032;-68
2022/06/26 11:20:52;;;;;;;7.53;2.80;;;;;;;22.01;100.00;101536.47;5303875;28;20439;-69
2022/06/26 11:23:24;;;;;;;5.75;2.50;;;;;;;21.93;100.00;101526.75;5307378;28;20031;-69
2022/06/26 11:26:04;;;;;;;;;;;;;;;22.53;100.00;101525.53;5307336;28;20029;-69
2022/06/26 11:28:43;;;;;;;7.63;2.88;;;;;;;22.01;100.00;101520.47;5312002;28;19980;-69
2022/06/26 11:31:26;;;;;;;7.03;2.33;;;;;;;22.25;100.00;101522.00;5309235;28;20017;-69
2022/06/26 11:34:13;;;;;;;6.45;2.10;;;;;;;22.15;100.00;101516.13;5309596;28;20028;-68
2022/06/26 11:36:58;;;;;;;7.75;2.30;;;;;;;22.04;100.00;101522.75;5303005;28;20411;-69
2022/06/26 11:39:42;;;;;;;5.63;2.30;;;;;;;22.06;100.00;101518.06;5311238;28;20036;-68
2022/06/26 11:42:24;;;;;;;4.65;2.60;;;;;;;21.96;100.00;101526.38;5311466;28;20077;-68
2022/06/26 11:44:55;;;;;;;4.10;2.00;;;;;;;21.81;100.00;101517.56;5307378;28;20027;-68
2022/06/26 11:47:27;;;;;;;4.20;1.90;;;;;;;21.90;100.00;101515.66;5305333;28;20043;-68
2022/06/26 11:49:58;;;;;;;4.27;2.30;;;;;;;21.79;100.00;101519.63;5310090;28;20038;-68
2022/06/26 11:52:29;;;;;;;5.77;2.33;;;;;;;21.76;100.00;101528.81;5307829;28;20012;-69